sensor_id;sensor_type;location;lat;lon;timestamp;pressure;altitude;pressure_sealevel;temperature;humidity
51249;BME280;39642;47.556;18.728;2022-09-09T00:02:27;99382.41;;;23.63;57.66
51249;BME280;39642;47.556;18.728;2022-09-09T00:05:00;99375.28;;;23.64;57.70
51249;BME280;39642;47.556;18.728;2022-09-09T00:07:51;99367.44;;;23.62;57.74
51249;BME280;39642;47.556;18.728;2022-09-09T00:10:29;99369.22;;;23.62;57.59
51249;BME280;39642;47.556;18.728;2022-09-09T00:15:54;99366.72;;;23.60;57.64
51249;BME280;39642;47.556;18.728;2022-09-09T00:18:46;99360.41;;;23.61;57.51
51249;BME280;39642;47.556;18.728;2022-09-09T00:21:17;99364.78;;;23.62;57.50
51249;BME280;39642;47.556;18.728;2022-09-09T00:23:51;99356.81;;;23.62;57.40
51249;BME280;39642;47.556;18.728;2022-09-09T00:26:29;99362.97;;;23.63;57.33
51249;BME280;39642;47.556;18.728;2022-09-09T00:31:34;99355.09;;;23.61;57.21
51249;BME280;39642;47.556;18.728;2022-09-09T00:34:23;99355.94;;;23.62;57.34
51249;BME280;39642;47.556;18.728;2022-09-09T00:36:52;99366.72;;;23.60;57.18
51249;BME280;39642;47.556;18.728;2022-09-09T00:39:42;99373.97;;;23.58;57.46
51249;BME280;39642;47.556;18.728;2022-09-09T00:42:12;99369.59;;;23.57;57.39
51249;BME280;39642;47.556;18.728;2022-09-09T00:45:01;99372.75;;;23.62;57.25
51249;BME280;39642;47.556;18.728;2022-09-09T00:47:39;99378.19;;;23.61;57.21
51249;BME280;39642;47.556;18.728;2022-09-09T00:53:02;99380.84;;;23.61;57.21
51249;BME280;39642;47.556;18.728;2022-09-09T00:58:24;99383.59;;;23.59;57.21
51249;BME280;39642;47.556;18.728;2022-09-09T01:00:52;99383.75;;;23.58;57.17
51249;BME280;39642;47.556;18.728;2022-09-09T01:09:10;99382.66;;;23.60;57.01
51249;BME280;39642;47.556;18.728;2022-09-09T01:17:12;99395.12;;;23.60;56.99
51249;BME280;39642;47.556;18.728;2022-09-09T01:27:35;99396.53;;;23.53;57.06
51249;BME280;39642;47.556;18.728;2022-09-09T01:30:10;99394.75;;;23.53;56.96
51249;BME280;39642;47.556;18.728;2022-09-09T01:32:44;99402.94;;;23.50;56.88
51249;BME280;39642;47.556;18.728;2022-09-09T01:35:20;99399.53;;;23.48;56.84
51249;BME280;39642;47.556;18.728;2022-09-09T01:37:49;99409.44;;;23.46;57.06
51249;BME280;39642;47.556;18.728;2022-09-09T01:40:15;99405.09;;;23.45;56.99
51249;BME280;39642;47.556;18.728;2022-09-09T01:42:41;99401.59;;;23.44;56.97
51249;BME280;39642;47.556;18.728;2022-09-09T01:45:07;99401.22;;;23.38;57.13
51249;BME280;39642;47.556;18.728;2022-09-09T01:47:34;99394.47;;;23.34;57.42
51249;BME280;39642;47.556;18.728;2022-09-09T01:50:01;99394.34;;;23.35;57.13
51249;BME280;39642;47.556;18.728;2022-09-09T01:52:29;99398.69;;;23.36;57.12
51249;BME280;39642;47.556;18.728;2022-09-09T01:54:56;99404.84;;;23.37;57.29
51249;BME280;39642;47.556;18.728;2022-09-09T01:57:25;99406.53;;;23.38;57.06
51249;BME280;39642;47.556;18.728;2022-09-09T02:00:06;99396.75;;;23.38;57.08
51249;BME280;39642;47.556;18.728;2022-09-09T02:07:48;99410.66;;;23.42;56.94
51249;BME280;39642;47.556;18.728;2022-09-09T02:10:33;99406.94;;;23.44;56.90
51249;BME280;39642;47.556;18.728;2022-09-09T02:13:12;99416.47;;;23.47;56.72
51249;BME280;39642;47.556;18.728;2022-09-09T02:16:09;99413.06;;;23.45;56.81
51249;BME280;39642;47.556;18.728;2022-09-09T02:18:44;99416.69;;;23.44;56.67
51249;BME280;39642;47.556;18.728;2022-09-09T02:21:13;99411.38;;;23.44;56.69
51249;BME280;39642;47.556;18.728;2022-09-09T02:23:42;99412.25;;;23.44;56.67
51249;BME280;39642;47.556;18.728;2022-09-09T02:26:10;99413.19;;;23.43;56.72
51249;BME280;39642;47.556;18.728;2022-09-09T02:28:39;99412.09;;;23.46;56.65
51249;BME280;39642;47.556;18.728;2022-09-09T02:31:06;99412.09;;;23.46;56.56
51249;BME280;39642;47.556;18.728;2022-09-09T02:33:43;99405.00;;;23.46;56.53
51249;BME280;39642;47.556;18.728;2022-09-09T02:36:11;99407.50;;;23.48;56.45
51249;BME280;39642;47.556;18.728;2022-09-09T02:38:42;99405.59;;;23.50;56.41
51249;BME280;39642;47.556;18.728;2022-09-09T02:41:11;99408.25;;;23.50;56.17
51249;BME280;39642;47.556;18.728;2022-09-09T02:43:36;99410.91;;;23.50;56.27
51249;BME280;39642;47.556;18.728;2022-09-09T02:46:04;99411.16;;;23.47;56.32
51249;BME280;39642;47.556;18.728;2022-09-09T02:51:27;99428.19;;;23.44;56.41
51249;BME280;39642;47.556;18.728;2022-09-09T02:54:14;99417.66;;;23.43;56.34
51249;BME280;39642;47.556;18.728;2022-09-09T02:56:48;99415.00;;;23.43;56.39
51249;BME280;39642;47.556;18.728;2022-09-09T02:59:16;99413.31;;;23.42;56.25
51249;BME280;39642;47.556;18.728;2022-09-09T03:01:42;99411.63;;;23.41;56.14
51249;BME280;39642;47.556;18.728;2022-09-09T03:04:09;99405.34;;;23.42;56.34
51249;BME280;39642;47.556;18.728;2022-09-09T03:06:35;99418.62;;;23.42;56.32
51249;BME280;39642;47.556;18.728;2022-09-09T03:09:02;99420.31;;;23.43;56.28
51249;BME280;39642;47.556;18.728;2022-09-09T03:11:28;99421.06;;;23.45;56.16
51249;BME280;39642;47.556;18.728;2022-09-09T03:13:54;99428.91;;;23.46;56.13
51249;BME280;39642;47.556;18.728;2022-09-09T03:16:22;99435.16;;;23.45;56.13
51249;BME280;39642;47.556;18.728;2022-09-09T03:18:48;99436.00;;;23.46;56.01
51249;BME280;39642;47.556;18.728;2022-09-09T03:21:14;99439.53;;;23.46;56.00
51249;BME280;39642;47.556;18.728;2022-09-09T03:23:41;99450.03;;;23.48;55.99
51249;BME280;39642;47.556;18.728;2022-09-09T03:26:07;99436.63;;;23.49;55.98
51249;BME280;39642;47.556;18.728;2022-09-09T03:28:33;99439.03;;;23.53;55.86
51249;BME280;39642;47.556;18.728;2022-09-09T03:31:04;99435.66;;;23.51;55.86
51249;BME280;39642;47.556;18.728;2022-09-09T03:33:30;99435.56;;;23.52;55.81
51249;BME280;39642;47.556;18.728;2022-09-09T03:35:57;99442.56;;;23.53;55.79
51249;BME280;39642;47.556;18.728;2022-09-09T03:38:23;99446.19;;;23.52;55.76
51249;BME280;39642;47.556;18.728;2022-09-09T03:40:55;99444.37;;;23.53;55.73
51249;BME280;39642;47.556;18.728;2022-09-09T03:43:24;99441.59;;;23.54;55.70
51249;BME280;39642;47.556;18.728;2022-09-09T03:45:50;99443.41;;;23.54;55.70
51249;BME280;39642;47.556;18.728;2022-09-09T03:48:17;99446.19;;;23.52;55.72
51249;BME280;39642;47.556;18.728;2022-09-09T03:50:47;99443.53;;;23.52;55.65
51249;BME280;39642;47.556;18.728;2022-09-09T03:53:14;99448.84;;;23.52;55.67
51249;BME280;39642;47.556;18.728;2022-09-09T03:55:44;99454.25;;;23.51;55.67
51249;BME280;39642;47.556;18.728;2022-09-09T03:58:12;99447.28;;;23.49;55.63
51249;BME280;39642;47.556;18.728;2022-09-09T04:00:39;99455.25;;;23.49;55.66
51249;BME280;39642;47.556;18.728;2022-09-09T04:03:09;99459.72;;;23.49;55.64
51249;BME280;39642;47.556;18.728;2022-09-09T04:05:35;99470.22;;;23.51;55.64
51249;BME280;39642;47.556;18.728;2022-09-09T04:08:08;99458.75;;;23.50;55.62
51249;BME280;39642;47.556;18.728;2022-09-09T04:10:34;99463.31;;;23.48;55.61
51249;BME280;39642;47.556;18.728;2022-09-09T04:13:03;99462.47;;;23.47;55.61
51249;BME280;39642;47.556;18.728;2022-09-09T04:15:30;99457.28;;;23.46;55.63
51249;BME280;39642;47.556;18.728;2022-09-09T04:17:56;99456.44;;;23.45;55.63
51249;BME280;39642;47.556;18.728;2022-09-09T04:20:23;99464.41;;;23.45;55.66
51249;BME280;39642;47.556;18.728;2022-09-09T04:22:49;99465.25;;;23.46;55.58
51249;BME280;39642;47.556;18.728;2022-09-09T04:25:15;99463.81;;;23.42;55.68
51249;BME280;39642;47.556;18.728;2022-09-09T04:27:41;99458.59;;;23.40;55.75
51249;BME280;39642;47.556;18.728;2022-09-09T04:30:08;99454.47;;;23.36;55.87
51249;BME280;39642;47.556;18.728;2022-09-09T04:32:34;99446.50;;;23.36;55.93
51249;BME280;39642;47.556;18.728;2022-09-09T04:35:01;99444.69;;;23.37;55.91
51249;BME280;39642;47.556;18.728;2022-09-09T04:37:27;99446.41;;;23.38;55.91
51249;BME280;39642;47.556;18.728;2022-09-09T04:39:54;99443.75;;;23.38;55.92
51249;BME280;39642;47.556;18.728;2022-09-09T04:42:19;99441.09;;;23.38;56.04
51249;BME280;39642;47.556;18.728;2022-09-09T04:44:45;99441.19;;;23.36;56.07
51249;BME280;39642;47.556;18.728;2022-09-09T04:47:11;99435.03;;;23.36;56.36
51249;BME280;39642;47.556;18.728;2022-09-09T04:49:37;99438.78;;;23.33;56.92
51249;BME280;39642;47.556;18.728;2022-09-09T04:52:04;99436.34;;;23.30;57.40
51249;BME280;39642;47.556;18.728;2022-09-09T04:54:30;99435.75;;;23.26;57.50
51249;BME280;39642;47.556;18.728;2022-09-09T04:56:56;99435.94;;;23.23;57.40
51249;BME280;39642;47.556;18.728;2022-09-09T04:59:22;99442.00;;;23.25;57.43
51249;BME280;39642;47.556;18.728;2022-09-09T05:01:48;99442.25;;;23.22;57.37
51249;BME280;39642;47.556;18.728;2022-09-09T05:04:16;99445.00;;;23.21;57.34
51249;BME280;39642;47.556;18.728;2022-09-09T05:06:42;99451.50;;;23.17;57.45
51249;BME280;39642;47.556;18.728;2022-09-09T05:09:08;99451.50;;;23.17;57.33
51249;BME280;39642;47.556;18.728;2022-09-09T05:11:34;99449.19;;;23.12;57.45
51249;BME280;39642;47.556;18.728;2022-09-09T05:14:04;99450.41;;;23.08;57.48
51249;BME280;39642;47.556;18.728;2022-09-09T05:16:30;99447.50;;;23.11;57.48
51249;BME280;39642;47.556;18.728;2022-09-09T05:18:56;99449.34;;;23.11;57.66
51249;BME280;39642;47.556;18.728;2022-09-09T05:21:24;99438.72;;;23.11;57.50
51249;BME280;39642;47.556;18.728;2022-09-09T05:23:52;99437.53;;;23.15;57.53
51249;BME280;39642;47.556;18.728;2022-09-09T05:26:22;99430.88;;;23.20;57.57
51249;BME280;39642;47.556;18.728;2022-09-09T05:28:48;99428.50;;;23.28;57.58
51249;BME280;39642;47.556;18.728;2022-09-09T05:31:15;99430.56;;;23.36;57.24
51249;BME280;39642;47.556;18.728;2022-09-09T05:33:43;99432.88;;;23.41;56.81
51249;BME280;39642;47.556;18.728;2022-09-09T05:36:19;99430.91;;;23.32;56.86
51249;BME280;39642;47.556;18.728;2022-09-09T05:38:46;99435.75;;;23.26;57.19
51249;BME280;39642;47.556;18.728;2022-09-09T05:41:13;99424.00;;;23.18;56.99
51249;BME280;39642;47.556;18.728;2022-09-09T05:43:41;99422.88;;;23.09;56.80
51249;BME280;39642;47.556;18.728;2022-09-09T05:46:11;99423.66;;;22.98;57.09
51249;BME280;39642;47.556;18.728;2022-09-09T05:48:42;99426.53;;;22.95;57.19
51249;BME280;39642;47.556;18.728;2022-09-09T05:51:09;99424.81;;;22.94;57.57
51249;BME280;39642;47.556;18.728;2022-09-09T05:53:38;99428.56;;;22.92;57.56
51249;BME280;39642;47.556;18.728;2022-09-09T05:56:07;99425.56;;;22.96;57.49
51249;BME280;39642;47.556;18.728;2022-09-09T05:58:36;99422.91;;;22.96;57.55
51249;BME280;39642;47.556;18.728;2022-09-09T06:03:34;99422.94;;;22.72;58.05
51249;BME280;39642;47.556;18.728;2022-09-09T06:06:03;99417.06;;;22.80;58.35
51249;BME280;39642;47.556;18.728;2022-09-09T06:08:32;99430.63;;;22.88;57.92
51249;BME280;39642;47.556;18.728;2022-09-09T06:11:16;99415.69;;;22.98;57.66
51249;BME280;39642;47.556;18.728;2022-09-09T06:13:43;99423.63;;;23.11;56.94
51249;BME280;39642;47.556;18.728;2022-09-09T06:16:11;99422.16;;;23.07;56.98
51249;BME280;39642;47.556;18.728;2022-09-09T06:18:38;99417.41;;;22.99;57.14
51249;BME280;39642;47.556;18.728;2022-09-09T06:21:06;99421.22;;;22.95;57.32
51249;BME280;39642;47.556;18.728;2022-09-09T06:23:33;99427.81;;;22.90;57.26
51249;BME280;39642;47.556;18.728;2022-09-09T06:26:06;99428.56;;;22.92;57.29
51249;BME280;39642;47.556;18.728;2022-09-09T06:28:33;99435.78;;;22.90;57.70
51249;BME280;39642;47.556;18.728;2022-09-09T06:31:04;99438.69;;;22.86;57.71
51249;BME280;39642;47.556;18.728;2022-09-09T06:33:32;99437.59;;;22.89;57.86
51249;BME280;39642;47.556;18.728;2022-09-09T06:36:01;99431.22;;;22.92;57.64
51249;BME280;39642;47.556;18.728;2022-09-09T06:38:29;99438.97;;;22.95;57.82
51249;BME280;39642;47.556;18.728;2022-09-09T06:40:59;99442.47;;;22.95;57.94
51249;BME280;39642;47.556;18.728;2022-09-09T06:43:26;99442.06;;;23.01;57.80
51249;BME280;39642;47.556;18.728;2022-09-09T06:46:00;99449.03;;;23.02;57.80
51249;BME280;39642;47.556;18.728;2022-09-09T06:48:26;99459.44;;;23.05;57.81
51249;BME280;39642;47.556;18.728;2022-09-09T06:51:04;99458.13;;;23.11;57.87
51249;BME280;39642;47.556;18.728;2022-09-09T06:53:31;99457.69;;;23.17;57.81
51249;BME280;39642;47.556;18.728;2022-09-09T06:56:23;99464.12;;;23.26;57.79
51249;BME280;39642;47.556;18.728;2022-09-09T06:58:50;99456.50;;;23.33;57.20
51249;BME280;39642;47.556;18.728;2022-09-09T07:01:22;99461.16;;;23.42;57.08
51249;BME280;39642;47.556;18.728;2022-09-09T07:03:51;99473.09;;;23.47;56.64
51249;BME280;39642;47.556;18.728;2022-09-09T07:06:23;99471.28;;;23.48;56.41
51249;BME280;39642;47.556;18.728;2022-09-09T07:08:54;99469.38;;;23.50;56.29
51249;BME280;39642;47.556;18.728;2022-09-09T07:11:22;99471.28;;;23.48;56.42
51249;BME280;39642;47.556;18.728;2022-09-09T07:13:48;99479.41;;;23.46;56.77
51249;BME280;39642;47.556;18.728;2022-09-09T07:16:17;99483.00;;;23.45;56.80
51249;BME280;39642;47.556;18.728;2022-09-09T07:18:43;99478.78;;;23.43;57.01
51249;BME280;39642;47.556;18.728;2022-09-09T07:21:10;99483.00;;;23.45;57.10
51249;BME280;39642;47.556;18.728;2022-09-09T07:23:38;99474.19;;;23.45;57.38
51249;BME280;39642;47.556;18.728;2022-09-09T07:26:12;99477.78;;;23.44;57.43
51249;BME280;39642;47.556;18.728;2022-09-09T07:28:39;99472.22;;;23.36;57.69
51249;BME280;39642;47.556;18.728;2022-09-09T07:31:07;99467.37;;;23.30;57.99
51249;BME280;39642;47.556;18.728;2022-09-09T07:33:34;99482.31;;;23.19;58.26
51249;BME280;39642;47.556;18.728;2022-09-09T07:36:05;99481.59;;;23.17;58.25
51249;BME280;39642;47.556;18.728;2022-09-09T07:38:40;99475.94;;;23.22;58.13
51249;BME280;39642;47.556;18.728;2022-09-09T07:41:11;99483.16;;;23.20;58.23
51249;BME280;39642;47.556;18.728;2022-09-09T07:43:39;99484.00;;;23.20;61.11
51249;BME280;39642;47.556;18.728;2022-09-09T07:46:06;99478.34;;;23.25;58.17
51249;BME280;39642;47.556;18.728;2022-09-09T07:48:32;99471.84;;;23.29;58.05
51249;BME280;39642;47.556;18.728;2022-09-09T07:51:10;99474.25;;;23.32;58.21
51249;BME280;39642;47.556;18.728;2022-09-09T07:53:38;99473.19;;;23.35;57.95
51249;BME280;39642;47.556;18.728;2022-09-09T07:56:06;99478.38;;;23.36;58.14
51249;BME280;39642;47.556;18.728;2022-09-09T07:58:32;99477.31;;;23.39;57.74
51249;BME280;39642;47.556;18.728;2022-09-09T08:00:59;99480.69;;;23.41;57.88
51249;BME280;39642;47.556;18.728;2022-09-09T08:03:25;99480.25;;;23.47;58.66
51249;BME280;39642;47.556;18.728;2022-09-09T08:05:50;99477.78;;;23.44;57.49
51249;BME280;39642;47.556;18.728;2022-09-09T08:08:17;99484.34;;;23.40;57.77
51249;BME280;39642;47.556;18.728;2022-09-09T08:10:43;99476.91;;;23.32;57.74
51249;BME280;39642;47.556;18.728;2022-09-09T08:13:09;99477.75;;;23.33;57.99
51249;BME280;39642;47.556;18.728;2022-09-09T08:15:35;99476.72;;;23.35;58.10
51249;BME280;39642;47.556;18.728;2022-09-09T08:18:00;99473.91;;;23.37;58.01
51249;BME280;39642;47.556;18.728;2022-09-09T08:20:28;99473.19;;;23.35;58.00
51249;BME280;39642;47.556;18.728;2022-09-09T08:22:55;99481.16;;;23.35;57.46
51249;BME280;39642;47.556;18.728;2022-09-09T08:25:21;99470.53;;;23.35;57.83
51249;BME280;39642;47.556;18.728;2022-09-09T08:27:47;99461.81;;;23.33;57.90
51249;BME280;39642;47.556;18.728;2022-09-09T08:30:13;99468.84;;;23.34;57.75
51249;BME280;39642;47.556;18.728;2022-09-09T08:32:39;99471.78;;;23.42;57.24
51249;BME280;39642;47.556;18.728;2022-09-09T08:35:05;99470.06;;;23.41;57.16
51249;BME280;39642;47.556;18.728;2022-09-09T08:37:32;99472.00;;;23.39;57.09
51249;BME280;39642;47.556;18.728;2022-09-09T08:39:58;99479.00;;;23.40;56.75
51249;BME280;39642;47.556;18.728;2022-09-09T08:42:32;99488.91;;;23.38;56.85
51249;BME280;39642;47.556;18.728;2022-09-09T08:50:38;99494.22;;;23.38;55.46
51249;BME280;39642;47.556;18.728;2022-09-09T08:53:16;99494.22;;;23.38;55.30
51249;BME280;39642;47.556;18.728;2022-09-09T08:58:20;99486.00;;;23.41;55.51
51249;BME280;39642;47.556;18.728;2022-09-09T09:01:16;99492.56;;;23.48;55.90
51249;BME280;39642;47.556;18.728;2022-09-09T09:03:57;99487.88;;;23.52;54.59
51249;BME280;39642;47.556;18.728;2022-09-09T09:09:39;99478.91;;;23.53;53.83
51249;BME280;39642;47.556;18.728;2022-09-09T09:12:20;99484.13;;;23.54;53.59
51249;BME280;39642;47.556;18.728;2022-09-09T09:14:48;99483.13;;;23.55;53.91
51249;BME280;39642;47.556;18.728;2022-09-09T09:17:20;99478.69;;;23.56;53.80
51249;BME280;39642;47.556;18.728;2022-09-09T09:19:48;99481.22;;;23.57;52.96
51249;BME280;39642;47.556;18.728;2022-09-09T09:22:43;99475.78;;;23.59;51.52
51249;BME280;39642;47.556;18.728;2022-09-09T09:28:01;99463.34;;;23.59;50.70
51249;BME280;39642;47.556;18.728;2022-09-09T09:30:39;99466.87;;;23.60;50.63
51249;BME280;39642;47.556;18.728;2022-09-09T09:35:58;99460.09;;;23.56;50.61
51249;BME280;39642;47.556;18.728;2022-09-09T09:38:27;99454.88;;;23.54;50.36
51249;BME280;39642;47.556;18.728;2022-09-09T09:40:56;99459.22;;;23.55;50.15
51249;BME280;39642;47.556;18.728;2022-09-09T09:43:34;99457.06;;;23.49;49.49
51249;BME280;39642;47.556;18.728;2022-09-09T09:46:03;99466.50;;;23.53;50.88
51249;BME280;39642;47.556;18.728;2022-09-09T09:48:30;99465.28;;;23.57;50.40
51249;BME280;39642;47.556;18.728;2022-09-09T09:53:27;99473.97;;;23.59;49.79
51249;BME280;39642;47.556;18.728;2022-09-09T09:56:05;99466.63;;;23.63;50.05
51249;BME280;39642;47.556;18.728;2022-09-09T09:58:52;99465.06;;;23.60;50.36
51249;BME280;39642;47.556;18.728;2022-09-09T10:01:31;99464.22;;;23.60;47.73
51249;BME280;39642;47.556;18.728;2022-09-09T10:04:21;99460.34;;;23.64;47.49
51249;BME280;39642;47.556;18.728;2022-09-09T10:06:49;99471.47;;;23.69;48.81
51249;BME280;39642;47.556;18.728;2022-09-09T10:09:25;99458.28;;;23.67;48.54
51249;BME280;39642;47.556;18.728;2022-09-09T10:19:37;99455.19;;;23.74;45.77
51249;BME280;39642;47.556;18.728;2022-09-09T10:42:59;99471.88;;;23.76;46.52
51249;BME280;39642;47.556;18.728;2022-09-09T10:51:29;99468.75;;;23.93;45.65
51249;BME280;39642;47.556;18.728;2022-09-09T10:56:51;99465.00;;;23.96;44.83
51249;BME280;39642;47.556;18.728;2022-09-09T10:59:26;99469.47;;;23.95;44.99
51249;BME280;39642;47.556;18.728;2022-09-09T11:02:27;99465.13;;;23.94;44.79
51249;BME280;39642;47.556;18.728;2022-09-09T11:04:59;99458.00;;;23.95;44.76
51249;BME280;39642;47.556;18.728;2022-09-09T11:10:00;99462.47;;;23.94;45.01
51249;BME280;39642;47.556;18.728;2022-09-09T11:12:29;99460.03;;;23.91;44.19
51249;BME280;39642;47.556;18.728;2022-09-09T11:15:06;99459.34;;;23.89;44.59
51249;BME280;39642;47.556;18.728;2022-09-09T11:18:10;99465.50;;;23.89;44.09
51249;BME280;39642;47.556;18.728;2022-09-09T11:20:28;99468.16;;;23.89;45.63
51249;BME280;39642;47.556;18.728;2022-09-09T11:25:35;99455.94;;;23.87;45.40
51249;BME280;39642;47.556;18.728;2022-09-09T11:36:31;99457.25;;;23.81;45.42
51249;BME280;39642;47.556;18.728;2022-09-09T11:41:45;99456.16;;;23.84;45.26
51249;BME280;39642;47.556;18.728;2022-09-09T11:44:17;99451.34;;;23.89;46.50
51249;BME280;39642;47.556;18.728;2022-09-09T11:46:48;99445.31;;;23.87;45.37
51249;BME280;39642;47.556;18.728;2022-09-09T11:49:42;99447.25;;;23.85;45.09
51249;BME280;39642;47.556;18.728;2022-09-09T11:54:49;99453.78;;;23.92;44.62
51249;BME280;39642;47.556;18.728;2022-09-09T11:57:35;99442.16;;;23.93;44.55
51249;BME280;39642;47.556;18.728;2022-09-09T12:00:03;99441.06;;;23.96;45.41
51249;BME280;39642;47.556;18.728;2022-09-09T12:02:30;99439.13;;;23.98;45.68
51249;BME280;39642;47.556;18.728;2022-09-09T12:05:00;99444.34;;;23.99;45.84
51249;BME280;39642;47.556;18.728;2022-09-09T12:08:00;99437.81;;;24.03;45.26
51249;BME280;39642;47.556;18.728;2022-09-09T12:10:30;99436.25;;;24.01;45.66
51249;BME280;39642;47.556;18.728;2022-09-09T12:13:18;99433.59;;;24.01;44.67
51249;BME280;39642;47.556;18.728;2022-09-09T12:15:50;99437.09;;;24.01;44.23
51249;BME280;39642;47.556;18.728;2022-09-09T12:18:33;99441.94;;;23.96;44.01
51249;BME280;39642;47.556;18.728;2022-09-09T12:23:47;99428.84;;;23.93;44.35
51249;BME280;39642;47.556;18.728;2022-09-09T12:26:23;99425.25;;;23.94;44.48
51249;BME280;39642;47.556;18.728;2022-09-09T12:34:39;99402.53;;;23.90;44.98
51249;BME280;39642;47.556;18.728;2022-09-09T12:39:47;99419.09;;;23.94;44.93
51249;BME280;39642;47.556;18.728;2022-09-09T12:42:17;99420.41;;;23.88;45.23
51249;BME280;39642;47.556;18.728;2022-09-09T12:44:57;99405.44;;;23.87;45.24
51249;BME280;39642;47.556;18.728;2022-09-09T12:47:30;99397.44;;;23.87;44.46
51249;BME280;39642;47.556;18.728;2022-09-09T12:50:00;99403.12;;;23.82;44.96
51249;BME280;39642;47.556;18.728;2022-09-09T12:52:32;99395.28;;;23.81;44.65
51249;BME280;39642;47.556;18.728;2022-09-09T12:55:02;99387.41;;;23.79;44.66
51249;BME280;39642;47.556;18.728;2022-09-09T12:57:34;99385.38;;;23.83;44.29
51249;BME280;39642;47.556;18.728;2022-09-09T13:00:21;99388.50;;;23.88;44.65
51249;BME280;39642;47.556;18.728;2022-09-09T13:02:56;99381.25;;;23.90;44.56
51249;BME280;39642;47.556;18.728;2022-09-09T13:05:37;99376.66;;;23.92;44.69
51249;BME280;39642;47.556;18.728;2022-09-09T13:08:10;99374.84;;;23.93;45.50
51249;BME280;39642;47.556;18.728;2022-09-09T13:13:13;99366.50;;;23.97;45.70
51249;BME280;39642;47.556;18.728;2022-09-09T13:15:39;99367.22;;;23.99;46.62
51249;BME280;39642;47.556;18.728;2022-09-09T13:18:11;99360.22;;;23.98;46.02
51249;BME280;39642;47.556;18.728;2022-09-09T13:20:38;99355.63;;;24.00;45.89
51249;BME280;39642;47.556;18.728;2022-09-09T13:23:04;99344.13;;;24.00;46.43
51249;BME280;39642;47.556;18.728;2022-09-09T13:25:30;99358.03;;;24.03;47.79
51249;BME280;39642;47.556;18.728;2022-09-09T13:28:01;99361.03;;;24.10;46.60
51249;BME280;39642;47.556;18.728;2022-09-09T13:35:36;99360.19;;;24.09;43.91
51249;BME280;39642;47.556;18.728;2022-09-09T13:38:15;99361.16;;;24.08;43.45
51249;BME280;39642;47.556;18.728;2022-09-09T13:40:53;99362.13;;;24.07;42.96
51249;BME280;39642;47.556;18.728;2022-09-09T13:43:21;99355.09;;;24.06;43.00
51249;BME280;39642;47.556;18.728;2022-09-09T13:45:58;99351.59;;;24.06;43.68
51249;BME280;39642;47.556;18.728;2022-09-09T13:48:25;99350.78;;;24.05;44.12
51249;BME280;39642;47.556;18.728;2022-09-09T13:51:00;99345.44;;;24.05;43.24
51249;BME280;39642;47.556;18.728;2022-09-09T13:53:26;99341.97;;;24.05;43.22
51249;BME280;39642;47.556;18.728;2022-09-09T13:55:53;99334.94;;;24.04;42.77
51249;BME280;39642;47.556;18.728;2022-09-09T13:58:19;99327.94;;;24.03;46.49
51249;BME280;39642;47.556;18.728;2022-09-09T14:00:45;99328.50;;;24.06;46.17
51249;BME280;39642;47.556;18.728;2022-09-09T14:03:12;99329.22;;;24.08;46.90
51249;BME280;39642;47.556;18.728;2022-09-09T14:05:39;99318.59;;;24.08;46.91
51249;BME280;39642;47.556;18.728;2022-09-09T14:08:06;99314.00;;;24.10;47.75
51249;BME280;39642;47.556;18.728;2022-09-09T14:10:33;99307.59;;;24.13;44.64
51249;BME280;39642;47.556;18.728;2022-09-09T14:13:03;99300.31;;;24.15;47.46
51249;BME280;39642;47.556;18.728;2022-09-09T14:15:28;99290.41;;;24.17;47.29
51249;BME280;39642;47.556;18.728;2022-09-09T14:17:54;99286.91;;;24.17;44.34
51249;BME280;39642;47.556;18.728;2022-09-09T14:20:20;99291.03;;;24.09;44.07
51249;BME280;39642;47.556;18.728;2022-09-09T14:22:47;99294.47;;;24.00;43.29
51249;BME280;39642;47.556;18.728;2022-09-09T14:25:12;99293.38;;;23.92;42.55
51249;BME280;39642;47.556;18.728;2022-09-09T14:27:39;99294.72;;;23.86;41.67
51249;BME280;39642;47.556;18.728;2022-09-09T14:30:06;99280.94;;;23.81;42.47
51249;BME280;39642;47.556;18.728;2022-09-09T14:32:33;99284.34;;;23.83;46.41
51249;BME280;39642;47.556;18.728;2022-09-09T14:34:58;99279.59;;;23.86;44.38
51249;BME280;39642;47.556;18.728;2022-09-09T14:37:24;99285.16;;;23.83;44.71
51249;BME280;39642;47.556;18.728;2022-09-09T14:39:51;99288.09;;;23.80;45.83
51249;BME280;39642;47.556;18.728;2022-09-09T14:42:17;99280.22;;;23.79;44.54
51249;BME280;39642;47.556;18.728;2022-09-09T14:44:43;99287.47;;;23.77;45.03
51249;BME280;39642;47.556;18.728;2022-09-09T14:47:09;99280.47;;;23.76;45.50
51249;BME280;39642;47.556;18.728;2022-09-09T14:49:35;99276.84;;;23.77;44.68
51249;BME280;39642;47.556;18.728;2022-09-09T14:52:02;99288.47;;;23.76;44.74
51249;BME280;39642;47.556;18.728;2022-09-09T14:54:28;99293.78;;;23.76;45.04
51249;BME280;39642;47.556;18.728;2022-09-09T14:56:53;99301.59;;;23.77;43.46
51249;BME280;39642;47.556;18.728;2022-09-09T14:59:19;99300.87;;;23.75;45.46
51249;BME280;39642;47.556;18.728;2022-09-09T15:01:45;99303.66;;;23.74;44.84
51249;BME280;39642;47.556;18.728;2022-09-09T15:04:12;99299.94;;;23.76;45.12
51249;BME280;39642;47.556;18.728;2022-09-09T15:06:40;99300.75;;;23.77;44.50
51249;BME280;39642;47.556;18.728;2022-09-09T15:09:08;99292.78;;;23.77;44.97
51249;BME280;39642;47.556;18.728;2022-09-09T15:11:35;99286.53;;;23.78;45.06
51249;BME280;39642;47.556;18.728;2022-09-09T15:14:06;99290.03;;;23.78;43.91
51249;BME280;39642;47.556;18.728;2022-09-09T15:16:33;99299.94;;;23.76;45.01
51249;BME280;39642;47.556;18.728;2022-09-09T15:19:00;99292.91;;;23.75;44.50
51249;BME280;39642;47.556;18.728;2022-09-09T15:21:29;99300.03;;;23.75;44.97
51249;BME280;39642;47.556;18.728;2022-09-09T15:23:56;99287.47;;;23.77;44.90